createdAt,value
2023-03-30T00:00:20.635Z,11.48
2023-03-30T00:02:49.546Z,11.70
2023-03-30T00:05:20.914Z,11.35
2023-03-30T00:07:48.079Z,11.63
2023-03-30T00:10:19.206Z,13.23
2023-03-30T00:12:47.478Z,11.52
2023-03-30T00:15:15.530Z,11.98
2023-03-30T00:17:42.501Z,13.48
2023-03-30T00:20:11.974Z,13.18
2023-03-30T00:25:08.819Z,11.52
2023-03-30T00:27:36.482Z,12.63
2023-03-30T00:30:07.842Z,12.52
2023-03-30T00:32:34.924Z,13.35
2023-03-30T00:35:01.988Z,11.98
2023-03-30T00:37:29.848Z,12.80
2023-03-30T00:39:56.887Z,14.45
2023-03-30T00:42:23.842Z,12.25
2023-03-30T00:45:16.413Z,13.20
2023-03-30T00:47:59.976Z,12.95
2023-03-30T00:50:48.534Z,12.95
2023-03-30T00:53:21.594Z,12.35
2023-03-30T00:55:49.356Z,11.75
2023-03-30T00:58:16.574Z,12.73
2023-03-30T01:00:43.645Z,12.25
2023-03-30T01:03:17.723Z,13.40
2023-03-30T01:05:45.044Z,12.60
2023-03-30T01:08:14.161Z,11.95
2023-03-30T01:10:41.260Z,11.43
2023-03-30T01:13:08.175Z,11.60
2023-03-30T01:15:36.196Z,12.20
2023-03-30T01:18:09.025Z,11.68
2023-03-30T01:21:14.310Z,13.68
2023-03-30T01:24:18.533Z,12.30
2023-03-30T01:26:51.846Z,13.10
2023-03-30T01:29:25.299Z,12.15
2023-03-30T01:32:01.289Z,13.07
2023-03-30T01:34:44.281Z,11.95
2023-03-30T01:37:43.592Z,12.32
2023-03-30T01:40:13.977Z,15.27
2023-03-30T01:42:43.589Z,13.55
2023-03-30T01:45:15.683Z,13.48
2023-03-30T01:48:07.193Z,13.40
2023-03-30T01:50:38.334Z,11.95
2023-03-30T01:53:18.543Z,12.80
2023-03-30T01:56:06.844Z,13.50
2023-03-30T01:58:43.734Z,12.60
2023-03-30T02:01:11.163Z,12.10
2023-03-30T02:03:39.364Z,13.93
2023-03-30T02:06:21.867Z,12.77
2023-03-30T02:08:49.693Z,12.15
2023-03-30T02:11:16.631Z,12.57
2023-03-30T02:13:43.499Z,13.43
2023-03-30T02:16:16.930Z,14.02
2023-03-30T02:18:43.869Z,12.95
2023-03-30T02:21:10.670Z,12.35
2023-03-30T02:23:39.580Z,15.23
2023-03-30T02:26:08.339Z,13.40
2023-03-30T02:28:35.504Z,14.88
2023-03-30T02:31:02.744Z,15.18
2023-03-30T02:33:59.419Z,13.18
2023-03-30T02:36:48.138Z,13.50
2023-03-30T02:39:17.949Z,12.10
2023-03-30T02:42:00.724Z,13.80
2023-03-30T02:44:55.369Z,13.05
2023-03-30T02:47:54.103Z,12.95
2023-03-30T02:50:39.104Z,12.45
2023-03-30T02:53:27.547Z,13.65
2023-03-30T02:56:07.162Z,13.50
2023-03-30T03:01:06.000Z,15.13
2023-03-30T03:06:04.495Z,13.93
2023-03-30T03:08:34.706Z,13.50
2023-03-30T03:11:01.731Z,14.13
2023-03-30T03:13:28.683Z,13.82
2023-03-30T03:15:58.261Z,13.10
2023-03-30T03:18:25.081Z,13.43
2023-03-30T03:20:53.323Z,13.68
2023-03-30T03:23:20.355Z,13.30
2023-03-30T03:25:48.528Z,12.90
2023-03-30T03:28:15.610Z,14.30
2023-03-30T03:30:42.930Z,14.93
2023-03-30T03:33:09.937Z,12.57
2023-03-30T03:35:39.543Z,13.35
2023-03-30T03:40:34.786Z,12.98
2023-03-30T03:43:01.873Z,12.93
2023-03-30T03:45:28.728Z,13.05
2023-03-30T03:47:55.740Z,13.00
2023-03-30T03:50:22.640Z,13.40
2023-03-30T03:52:49.594Z,12.23
2023-03-30T03:55:16.446Z,13.43
2023-03-30T03:57:45.195Z,13.38
2023-03-30T04:00:24.323Z,12.73
2023-03-30T04:02:51.087Z,14.55
2023-03-30T04:05:17.889Z,12.35
2023-03-30T04:07:46.565Z,13.60
2023-03-30T04:10:13.674Z,13.05
2023-03-30T04:12:40.454Z,14.45
2023-03-30T04:15:07.970Z,12.68
2023-03-30T04:17:35.397Z,15.68
2023-03-30T04:20:06.310Z,14.95
2023-03-30T04:22:42.218Z,12.07
2023-03-30T04:25:09.906Z,12.70
2023-03-30T04:27:37.833Z,13.93
2023-03-30T04:30:08.589Z,12.05
2023-03-30T04:32:38.957Z,12.93
2023-03-30T04:35:06.439Z,11.95
2023-03-30T04:37:33.395Z,16.48
2023-03-30T04:40:01.750Z,12.40
2023-03-30T04:42:30.759Z,12.75
2023-03-30T04:44:58.170Z,13.15
2023-03-30T04:47:25.926Z,12.30
2023-03-30T04:49:52.723Z,12.13
2023-03-30T04:52:19.736Z,14.15
2023-03-30T04:54:46.682Z,12.52
2023-03-30T04:57:14.269Z,11.43
2023-03-30T04:59:41.629Z,12.30
2023-03-30T05:02:09.081Z,13.07
2023-03-30T05:04:36.026Z,13.00
2023-03-30T05:07:03.018Z,12.43
2023-03-30T05:09:29.835Z,12.77
2023-03-30T05:11:56.729Z,12.10
2023-03-30T05:14:23.632Z,13.25
2023-03-30T05:16:50.411Z,12.52
2023-03-30T05:19:17.339Z,14.88
2023-03-30T05:21:44.472Z,13.68
2023-03-30T05:24:13.142Z,13.25
2023-03-30T05:26:40.006Z,12.38
2023-03-30T05:29:06.864Z,14.07
2023-03-30T05:31:33.635Z,14.00
2023-03-30T05:34:00.604Z,12.23
2023-03-30T05:36:27.548Z,13.30
2023-03-30T05:38:54.295Z,13.32
2023-03-30T05:41:21.275Z,13.07
2023-03-30T05:43:49.248Z,13.07
2023-03-30T05:46:16.050Z,11.85
2023-03-30T05:48:42.856Z,12.02
2023-03-30T05:51:09.882Z,12.88
2023-03-30T05:53:36.839Z,12.65
2023-03-30T05:56:03.710Z,12.77
2023-03-30T05:58:31.042Z,12.85
2023-03-30T06:00:58.567Z,12.57
2023-03-30T06:03:25.481Z,14.30
2023-03-30T06:05:53.865Z,12.82
2023-03-30T06:08:22.592Z,13.23
2023-03-30T06:10:53.939Z,14.48
2023-03-30T06:13:20.844Z,12.80
2023-03-30T06:15:47.720Z,14.27
2023-03-30T06:18:14.583Z,13.00
2023-03-30T06:20:41.453Z,16.10
2023-03-30T06:23:08.207Z,11.65
2023-03-30T06:25:36.018Z,13.23
2023-03-30T06:28:03.266Z,15.38
2023-03-30T06:30:30.190Z,15.88
2023-03-30T06:32:57.179Z,11.52
2023-03-30T06:35:24.217Z,12.52
2023-03-30T06:37:51.028Z,12.88
2023-03-30T06:40:19.267Z,14.38
2023-03-30T06:42:46.199Z,13.65
2023-03-30T06:45:13.789Z,13.40
2023-03-30T06:47:41.791Z,14.90
2023-03-30T06:50:09.324Z,15.40
2023-03-30T06:52:39.233Z,17.77
2023-03-30T06:55:06.473Z,16.30
2023-03-30T06:57:33.293Z,17.17
2023-03-30T07:00:00.196Z,11.77
2023-03-30T07:02:27.946Z,14.75
2023-03-30T07:04:54.882Z,14.10
2023-03-30T07:07:21.747Z,14.45
2023-03-30T07:09:48.593Z,17.08
2023-03-30T07:12:15.516Z,12.43
2023-03-30T07:14:42.404Z,14.05
2023-03-30T07:17:09.365Z,13.30
2023-03-30T07:19:36.931Z,14.10
2023-03-30T07:22:04.473Z,13.95
2023-03-30T07:24:31.682Z,14.73
2023-03-30T07:26:58.548Z,11.85
2023-03-30T07:29:27.231Z,11.93
2023-03-30T07:31:56.741Z,11.95
2023-03-30T07:34:23.664Z,13.93
2023-03-30T07:36:50.770Z,14.63
2023-03-30T07:39:18.064Z,12.27
2023-03-30T07:41:44.906Z,12.77
2023-03-30T07:44:11.724Z,13.05
2023-03-30T07:46:39.088Z,13.35
2023-03-30T07:49:06.233Z,11.48
2023-03-30T07:51:33.519Z,12.18
2023-03-30T07:54:00.830Z,12.15
2023-03-30T07:56:27.576Z,11.82
2023-03-30T07:58:54.347Z,13.05
2023-03-30T08:01:21.349Z,13.15
2023-03-30T08:03:48.491Z,12.88
2023-03-30T08:06:15.731Z,14.38
2023-03-30T08:08:43.685Z,13.75
2023-03-30T08:11:11.454Z,17.42
2023-03-30T08:13:40.018Z,15.75
2023-03-30T08:16:09.189Z,14.10
2023-03-30T08:18:37.242Z,13.30
2023-03-30T08:21:04.405Z,12.75
2023-03-30T08:23:31.933Z,13.02
2023-03-30T08:25:59.536Z,12.27
2023-03-30T08:28:26.528Z,14.35
2023-03-30T08:30:53.525Z,10.52
2023-03-30T08:33:20.523Z,12.25
2023-03-30T08:35:48.258Z,12.52
2023-03-30T08:38:17.940Z,11.23
2023-03-30T08:43:37.300Z,14.05
2023-03-30T08:46:04.304Z,10.82
2023-03-30T08:48:33.644Z,10.73
2023-03-30T08:51:23.592Z,11.02
2023-03-30T08:53:58.335Z,9.68
2023-03-30T08:56:29.281Z,10.77
2023-03-30T08:59:17.267Z,11.20
2023-03-30T09:01:53.398Z,10.38
2023-03-30T09:04:33.993Z,11.75
2023-03-30T09:07:07.977Z,10.90
2023-03-30T09:09:40.768Z,13.02
2023-03-30T09:12:34.516Z,11.15
2023-03-30T09:15:23.119Z,10.35
2023-03-30T09:18:17.928Z,10.93
2023-03-30T09:20:46.071Z,10.75
2023-03-30T09:23:14.412Z,10.90
2023-03-30T09:26:11.477Z,9.82
2023-03-30T09:29:01.290Z,9.00
2023-03-30T09:31:33.327Z,12.98
2023-03-30T09:34:07.148Z,9.82
2023-03-30T09:36:40.065Z,10.25
2023-03-30T09:39:13.638Z,10.77
2023-03-30T09:42:13.139Z,8.90
2023-03-30T09:44:48.051Z,10.05
2023-03-30T09:47:21.144Z,9.45
2023-03-30T09:49:47.969Z,14.55
2023-03-30T09:52:22.638Z,14.40
2023-03-30T09:54:49.457Z,9.73
2023-03-30T09:57:36.540Z,11.95
2023-03-30T10:00:04.999Z,11.10
2023-03-30T10:02:34.045Z,12.10
2023-03-30T10:05:02.640Z,11.90
2023-03-30T10:07:37.907Z,10.05
2023-03-30T10:10:13.961Z,10.77
2023-03-30T10:12:40.908Z,13.68
2023-03-30T10:15:14.774Z,14.68
2023-03-30T10:17:41.578Z,14.75
2023-03-30T10:20:27.101Z,10.93
2023-03-30T10:23:01.790Z,11.38
2023-03-30T10:25:29.797Z,12.25
2023-03-30T10:27:58.321Z,13.02
2023-03-30T10:30:27.249Z,10.50
2023-03-30T10:32:55.134Z,11.05
2023-03-30T10:35:26.497Z,10.98
2023-03-30T10:37:54.830Z,10.82
2023-03-30T10:40:32.746Z,11.10
2023-03-30T10:43:00.831Z,14.98
2023-03-30T10:45:33.093Z,15.30
2023-03-30T10:48:03.005Z,12.52
2023-03-30T10:50:50.826Z,10.40
2023-03-30T10:53:30.103Z,12.20
2023-03-30T10:59:27.248Z,10.25
2023-03-30T11:02:17.855Z,14.30
2023-03-30T11:05:06.674Z,11.05
2023-03-30T11:07:49.624Z,11.13
2023-03-30T11:10:21.531Z,11.27
2023-03-30T11:12:55.209Z,13.18
2023-03-30T11:15:27.530Z,11.38
2023-03-30T11:17:59.793Z,10.82
2023-03-30T11:20:29.360Z,12.50
2023-03-30T11:22:58.652Z,11.43
2023-03-30T11:25:27.837Z,11.15
2023-03-30T11:28:04.263Z,9.73
2023-03-30T11:30:31.835Z,10.82
2023-03-30T11:33:32.764Z,10.20
2023-03-30T11:36:17.751Z,10.60
2023-03-30T11:38:59.331Z,10.50
2023-03-30T11:41:36.706Z,11.63
2023-03-30T11:44:03.969Z,13.10
2023-03-30T11:46:39.883Z,13.43
2023-03-30T11:49:13.556Z,11.65
2023-03-30T11:51:49.718Z,10.88
2023-03-30T11:54:28.721Z,12.50
2023-03-30T11:57:11.277Z,11.93
2023-03-30T11:59:57.542Z,11.80
2023-03-30T12:02:39.619Z,11.60
2023-03-30T12:05:28.504Z,12.90
2023-03-30T12:08:07.220Z,12.73
2023-03-30T12:10:41.671Z,11.68
2023-03-30T12:13:15.797Z,11.82
2023-03-30T12:15:46.146Z,12.05
2023-03-30T12:18:33.377Z,14.07
2023-03-30T12:21:12.255Z,11.07
2023-03-30T12:23:54.654Z,12.30
2023-03-30T12:26:25.804Z,16.02
2023-03-30T12:29:48.150Z,12.50
2023-03-30T12:31:59.472Z,12.60
2023-03-30T12:34:27.762Z,11.35
2023-03-30T12:37:14.840Z,11.27
2023-03-30T12:39:55.234Z,12.50
2023-03-30T12:42:34.454Z,11.68
2023-03-30T12:45:12.125Z,16.15
2023-03-30T12:48:05.332Z,12.55
2023-03-30T12:50:52.384Z,12.52
2023-03-30T12:53:37.774Z,13.90
2023-03-30T12:56:07.740Z,12.40
2023-03-30T12:59:00.360Z,16.35
2023-03-30T13:01:39.850Z,11.73
2023-03-30T13:04:09.334Z,14.00
2023-03-30T13:09:16.629Z,10.82
2023-03-30T13:12:06.456Z,14.15
2023-03-30T13:14:36.069Z,12.45
2023-03-30T13:17:06.563Z,11.10
2023-03-30T13:19:33.455Z,12.52
2023-03-30T13:22:12.477Z,14.35
2023-03-30T13:24:41.180Z,11.23
2023-03-30T13:27:14.217Z,11.82
2023-03-30T13:29:41.780Z,11.35
2023-03-30T13:32:38.505Z,12.75
2023-03-30T13:35:33.233Z,9.60
2023-03-30T13:38:12.398Z,11.07
2023-03-30T13:41:23.536Z,13.65
2023-03-30T13:44:03.856Z,11.18
2023-03-30T13:46:50.469Z,11.32
2023-03-30T13:49:26.357Z,11.02
2023-03-30T13:51:53.366Z,13.10
2023-03-30T13:54:24.433Z,11.38
2023-03-30T13:57:03.840Z,12.45
2023-03-30T13:59:32.040Z,16.35
2023-03-30T14:02:00.175Z,12.07
2023-03-30T14:04:32.373Z,12.30
2023-03-30T14:07:14.469Z,11.10
2023-03-30T14:09:41.544Z,12.38
2023-03-30T14:12:08.482Z,11.35
2023-03-30T14:14:42.066Z,13.77
2023-03-30T14:17:22.443Z,11.10
2023-03-30T14:20:07.113Z,12.15
2023-03-30T14:22:37.287Z,14.93
2023-03-30T14:25:05.586Z,13.20
2023-03-30T14:27:33.701Z,11.80
2023-03-30T14:30:00.680Z,12.77
2023-03-30T14:32:27.618Z,14.60
2023-03-30T14:34:54.673Z,13.93
2023-03-30T14:37:23.179Z,10.93
2023-03-30T14:39:56.300Z,11.27
2023-03-30T14:42:27.681Z,12.18
2023-03-30T14:44:56.441Z,14.65
2023-03-30T14:47:24.576Z,12.95
2023-03-30T14:49:52.291Z,11.07
2023-03-30T14:52:24.451Z,11.48
2023-03-30T14:55:05.159Z,10.30
2023-03-30T14:57:38.367Z,11.77
2023-03-30T15:00:22.755Z,10.93
2023-03-30T15:03:02.567Z,12.25
2023-03-30T15:08:11.847Z,11.18
2023-03-30T15:11:08.928Z,11.15
2023-03-30T15:13:37.642Z,15.20
2023-03-30T15:16:04.878Z,11.27
2023-03-30T15:18:31.736Z,12.23
2023-03-30T15:20:58.541Z,11.98
2023-03-30T15:23:25.472Z,10.13
2023-03-30T15:25:52.460Z,10.57
2023-03-30T15:28:20.760Z,9.05
2023-03-30T15:30:50.882Z,10.73
2023-03-30T15:33:31.272Z,10.40
2023-03-30T15:36:02.002Z,12.63
2023-03-30T15:38:34.411Z,11.85
2023-03-30T15:41:02.510Z,11.15
2023-03-30T15:43:33.575Z,11.57
2023-03-30T15:46:13.744Z,10.73
2023-03-30T15:48:45.593Z,12.23
2023-03-30T15:51:16.783Z,13.50
2023-03-30T15:53:49.572Z,10.90
2023-03-30T15:56:25.518Z,14.70
2023-03-30T15:58:52.314Z,12.88
2023-03-30T16:01:19.209Z,12.88
2023-03-30T16:03:55.515Z,10.75
2023-03-30T16:06:23.099Z,14.95
2023-03-30T16:08:50.111Z,16.50
2023-03-30T16:11:18.679Z,10.55
2023-03-30T16:13:46.707Z,11.82
2023-03-30T16:16:14.514Z,12.18
2023-03-30T16:18:42.721Z,13.30
2023-03-30T16:21:11.098Z,11.65
2023-03-30T16:23:38.504Z,11.45
2023-03-30T16:26:06.228Z,10.63
2023-03-30T16:28:33.149Z,10.00
2023-03-30T16:31:01.520Z,11.45
2023-03-30T16:33:28.269Z,11.23
2023-03-30T16:35:55.107Z,11.63
2023-03-30T16:38:22.019Z,14.60
2023-03-30T16:40:53.210Z,12.10
2023-03-30T16:43:20.078Z,11.20
2023-03-30T16:45:47.060Z,13.85
2023-03-30T16:48:15.130Z,12.35
2023-03-30T16:50:43.500Z,15.90
2023-03-30T16:53:10.444Z,12.98
2023-03-30T16:55:37.838Z,13.32
2023-03-30T16:58:05.294Z,15.40
2023-03-30T17:00:33.948Z,13.45
2023-03-30T17:03:00.864Z,14.57
2023-03-30T17:05:27.730Z,13.35
2023-03-30T17:07:54.866Z,12.20
2023-03-30T17:10:29.104Z,13.35
2023-03-30T17:12:56.415Z,11.82
2023-03-30T17:15:24.921Z,14.93
2023-03-30T17:17:52.312Z,12.02
2023-03-30T17:20:23.601Z,16.15
2023-03-30T17:22:50.938Z,11.27
2023-03-30T17:25:20.822Z,13.93
2023-03-30T17:27:48.988Z,17.60
2023-03-30T17:30:18.459Z,13.57
2023-03-30T17:32:45.367Z,12.52
2023-03-30T17:35:12.269Z,12.55
2023-03-30T17:37:39.563Z,12.65
2023-03-30T17:40:23.471Z,14.70
2023-03-30T17:42:50.811Z,13.32
2023-03-30T17:45:18.978Z,13.40
2023-03-30T17:47:45.879Z,15.20
2023-03-30T17:50:24.594Z,13.63
2023-03-30T17:52:51.706Z,17.48
2023-03-30T17:55:19.310Z,12.55
2023-03-30T17:57:46.258Z,14.85
2023-03-30T18:00:17.385Z,12.20
2023-03-30T18:02:44.182Z,14.18
2023-03-30T18:05:11.527Z,17.88
2023-03-30T18:07:38.459Z,13.52
2023-03-30T18:10:17.716Z,13.23
2023-03-30T18:12:44.516Z,14.55
2023-03-30T18:15:11.559Z,13.07
2023-03-30T18:17:38.636Z,13.82
2023-03-30T18:20:34.176Z,12.38
2023-03-30T18:23:01.244Z,12.20
2023-03-30T18:25:32.470Z,11.48
2023-03-30T18:28:00.548Z,10.88
2023-03-30T18:30:31.968Z,12.07
2023-03-30T18:32:58.994Z,14.00
2023-03-30T18:35:27.719Z,12.52
2023-03-30T18:37:54.909Z,13.40
2023-03-30T18:40:26.813Z,10.45
2023-03-30T18:42:53.708Z,13.93
2023-03-30T18:45:27.382Z,11.48
2023-03-30T18:47:55.064Z,10.07
2023-03-30T18:50:44.926Z,13.02
2023-03-30T18:53:13.446Z,11.95
2023-03-30T18:55:42.078Z,11.93
2023-03-30T18:58:28.410Z,16.05
2023-03-30T19:00:55.739Z,12.70
2023-03-30T19:03:22.993Z,13.48
2023-03-30T19:05:50.539Z,12.93
2023-03-30T19:08:19.021Z,11.80
2023-03-30T19:10:46.345Z,11.18
2023-03-30T19:13:14.238Z,13.40
2023-03-30T19:15:41.343Z,10.93
2023-03-30T19:18:08.542Z,12.48
2023-03-30T19:20:37.976Z,12.45
2023-03-30T19:23:04.791Z,13.57
2023-03-30T19:25:31.569Z,11.60
2023-03-30T19:28:03.577Z,12.13
2023-03-30T19:30:32.878Z,12.73
2023-03-30T19:33:02.184Z,12.75
2023-03-30T19:35:29.159Z,11.75
2023-03-30T19:37:56.206Z,14.02
2023-03-30T19:40:23.142Z,12.00
2023-03-30T19:42:50.371Z,12.57
2023-03-30T19:45:18.835Z,13.80
2023-03-30T19:47:45.791Z,10.90
2023-03-30T19:50:18.190Z,11.63
2023-03-30T19:52:48.740Z,10.13
2023-03-30T19:55:15.886Z,15.75
2023-03-30T19:57:42.688Z,12.48
2023-03-30T20:00:13.099Z,15.20
2023-03-30T20:02:41.280Z,12.68
2023-03-30T20:05:10.327Z,12.75
2023-03-30T20:07:37.549Z,12.02
2023-03-30T20:10:05.513Z,11.63
2023-03-30T20:12:32.403Z,11.48
2023-03-30T20:15:00.173Z,11.80
2023-03-30T20:17:30.075Z,10.82
2023-03-30T20:19:58.221Z,12.88
2023-03-30T20:22:25.708Z,12.73
2023-03-30T20:24:52.438Z,11.13
2023-03-30T20:27:19.344Z,11.77
2023-03-30T20:29:46.268Z,12.50
2023-03-30T20:32:13.077Z,12.88
2023-03-30T20:34:40.363Z,10.93
2023-03-30T20:37:07.202Z,13.07
2023-03-30T20:39:34.357Z,15.45
2023-03-30T20:42:02.112Z,13.23
2023-03-30T20:44:31.973Z,13.60
2023-03-30T20:46:58.783Z,11.65
2023-03-30T20:49:25.990Z,11.93
2023-03-30T20:51:53.426Z,11.07
2023-03-30T20:54:20.804Z,12.07
2023-03-30T20:56:47.764Z,12.32
2023-03-30T20:59:14.678Z,13.25
2023-03-30T21:01:41.547Z,13.23
2023-03-30T21:04:08.443Z,14.73
2023-03-30T21:06:35.424Z,13.18
2023-03-30T21:09:04.096Z,13.65
2023-03-30T21:11:33.584Z,14.95
2023-03-30T21:14:01.689Z,11.55
2023-03-30T21:16:28.645Z,16.05
2023-03-30T21:18:55.562Z,16.20
2023-03-30T21:21:22.489Z,15.57
2023-03-30T21:23:49.350Z,19.00
2023-03-30T21:26:18.642Z,17.27
2023-03-30T21:28:45.688Z,18.73
2023-03-30T21:31:14.390Z,17.88
2023-03-30T21:33:41.474Z,18.73
2023-03-30T21:36:09.050Z,18.90
2023-03-30T21:38:36.476Z,17.95
2023-03-30T21:41:14.080Z,16.77
2023-03-30T21:43:44.138Z,19.08
2023-03-30T21:46:13.476Z,23.80
2023-03-30T21:48:41.602Z,17.17
2023-03-30T21:51:09.282Z,18.70
2023-03-30T21:53:36.401Z,19.05
2023-03-30T21:56:03.494Z,20.02
2023-03-30T21:58:30.349Z,18.98
2023-03-30T22:01:08.875Z,20.70
2023-03-30T22:03:38.686Z,18.55
2023-03-30T22:06:07.094Z,18.75
2023-03-30T22:08:34.239Z,18.83
2023-03-30T22:11:12.803Z,19.02
2023-03-30T22:13:39.723Z,19.98
2023-03-30T22:16:12.925Z,18.52
2023-03-30T22:18:40.349Z,17.23
2023-03-30T22:21:08.658Z,18.27
2023-03-30T22:23:35.691Z,17.70
2023-03-30T22:26:02.476Z,18.55
2023-03-30T22:28:29.837Z,17.95
2023-03-30T22:30:56.668Z,18.92
2023-03-30T22:33:23.432Z,19.40
2023-03-30T22:35:50.197Z,23.15
2023-03-30T22:38:17.051Z,18.20
2023-03-30T22:40:43.831Z,17.08
2023-03-30T22:43:11.447Z,19.40
2023-03-30T22:45:38.699Z,19.33
2023-03-30T22:48:06.084Z,18.20
2023-03-30T22:50:34.102Z,18.50
2023-03-30T22:53:01.076Z,20.58
2023-03-30T22:55:28.821Z,19.67
2023-03-30T22:57:57.072Z,26.00
2023-03-30T23:00:23.911Z,20.48
2023-03-30T23:02:51.542Z,19.33
2023-03-30T23:05:21.444Z,21.35
2023-03-30T23:07:49.144Z,20.55
2023-03-30T23:10:18.420Z,20.15
2023-03-30T23:12:45.764Z,21.55
2023-03-30T23:15:12.726Z,21.15
2023-03-30T23:17:39.823Z,25.13
2023-03-30T23:20:08.349Z,21.98
2023-03-30T23:22:35.289Z,30.88
2023-03-30T23:25:02.017Z,22.98
2023-03-30T23:27:28.755Z,21.88
2023-03-30T23:29:55.919Z,23.40
2023-03-30T23:32:22.642Z,22.10
2023-03-30T23:34:49.377Z,23.60
2023-03-30T23:37:17.766Z,24.58
2023-03-30T23:39:44.618Z,22.85
2023-03-30T23:42:11.846Z,21.63
2023-03-30T23:44:38.704Z,24.38
2023-03-30T23:47:05.494Z,22.40
2023-03-30T23:49:32.194Z,23.75
2023-03-30T23:51:59.090Z,24.30
2023-03-30T23:54:25.905Z,31.48
2023-03-30T23:56:57.367Z,22.55
2023-03-30T23:59:24.778Z,23.17
